Daily Tabular Data
[Select Refresh to Update]


4/18/18
Time         Wind Dir   Wind Spd  Wind Gust     Hum In   Humidity    Temp In       Temp  Raw Barom   Tot Rain Wind Chill Heat Ix In Heat Index  Dew Point  DailyRain   HourRain   RainRate
                            mph        mph          %          %         F         F         in         in         F         F         F         F         in         in      in/hr
12:00am           346          0          3         30         50       73.2       55.2      29.20       4.41       55.2       72.4       56.0       36.9       0.00       0.00      0.000
12:30am            80          0          2         31         48       73.1       54.9      29.20       4.41       54.9       72.4       55.5       35.6       0.00       0.00      0.000
1:00am             77          0          2         30         52       73.0       54.2      29.20       4.41       54.2       72.2       55.2       37.0       0.00       0.00      0.000
1:30am            163          0          1         30         54       72.8       53.4      29.19       4.41       53.4       72.0       54.6       37.2       0.00       0.00      0.000
2:00am            105          1          2         31         51       72.6       52.6      29.19       4.41       52.6       71.9       53.5       35.0       0.00       0.00      0.000
2:30am            104          1          2         31         51       72.4       53.0      29.19       4.41       53.0       71.7       53.9       35.4       0.00       0.00      0.000
3:00am            198          0          2         31         60       72.2       52.0      29.20       4.41       52.0       71.5       53.8       38.6       0.00       0.00      0.000
3:30am             76          0          1         31         57       72.1       50.5      29.19       4.41       50.5       71.4       52.0       35.9       0.00       0.00      0.000
4:00am             99          1          5         31         52       71.9       50.9      29.19       4.41       50.9       71.2       51.9       33.9       0.00       0.00      0.000
4:30am            110          3          6         31         56       71.7       51.0      29.19       4.41       50.8       71.0       52.4       35.9       0.00       0.00      0.000
5:00am            321          0          6         31         58       71.4       50.1      29.19       4.41       50.1       70.7       51.7       35.9       0.00       0.00      0.000
5:30am             84          0          2         31         54       71.3       49.7      29.19       4.41       49.7       70.6       50.9       33.7       0.00       0.00      0.000
6:00am             75          0          0         31         55       71.1       49.3      29.19       4.41       49.3       70.4       50.6       33.8       0.00       0.00      0.000
6:30am             93          0          0         31         53       70.9       49.7      29.20       4.41       49.7       70.2       50.8       33.3       0.00       0.00      0.000
7:00am             65          3          6         30         46       70.8       54.2      29.20       4.41       54.2       70.0       54.6       33.9       0.00       0.00      0.000
7:30am             80          2          6         30         44       71.0       56.8      29.20       4.41       56.8       70.2       57.1       35.1       0.00       0.00      0.000
8:00am             99          0          7         29         52       70.8       61.4      29.20       4.41       61.4       69.9       62.4       43.6       0.00       0.00      0.000
8:30am            253          0          1         30         43       70.5       62.2      29.20       4.41       62.2       69.7       62.4       39.5       0.00       0.00      0.000
9:00am            244          0          6         31         40       70.5       64.3      29.21       4.41       64.3       69.8       64.2       39.5       0.00       0.00      0.000
9:30am            259          1         10         31         38       70.9       66.1      29.21       4.41       66.1       70.2       65.9       39.8       0.00       0.00      0.000
10:00am           121          4          6         32         45       70.9       68.7      29.22       4.41       68.7       70.2       69.0       46.5       0.00       0.00      0.000
10:30am           160          2          7         32         38       71.2       68.1      29.22       4.41       68.1       70.5       67.9       41.6       0.00       0.00      0.000
11:00am           139          2          8         32         39       71.6       71.7      29.23       4.41       71.7       70.9       71.5       45.4       0.00       0.00      0.000
11:30am           253          0         10         32         36       71.8       71.6      29.22       4.41       71.6       71.1       71.2       43.3       0.00       0.00      0.000
12:00pm           208          2          7         32         38       72.1       73.5      29.22       4.41       73.5       71.4       73.3       46.4       0.00       0.00      0.000
12:30pm           150          5         12         33         34       72.4       74.3      29.21       4.41       74.3       71.8       73.8       44.1       0.00       0.00      0.000
1:00pm            128         12         12         33         30       72.7       75.4      29.21       4.41       75.4       72.1       74.6       41.8       0.00       0.00      0.000
1:30pm            213          3         15         33         35       73.0       74.4      29.20       4.41       74.4       72.4       73.9       45.0       0.00       0.00      0.000
2:00pm            138         11         16         33         37       73.2       73.1      29.20       4.41       73.1       72.6       72.8       45.3       0.00       0.00      0.000
2:30pm            253          3         13         33         43       73.5       71.4      29.20       4.41       71.4       72.9       71.6       47.8       0.00       0.00      0.000
3:00pm            221          1         11         33         40       73.7       71.8      29.18       4.41       71.8       73.1       71.7       46.2       0.00       0.00      0.000
3:30pm            250          0         13         33         35       73.9       72.8      29.16       4.41       72.8       73.3       72.3       43.6       0.00       0.00      0.000
4:00pm            255          1         11         32         33       74.1       73.3      29.16       4.41       73.3       73.4       72.7       42.5       0.00       0.00      0.000
4:30pm            130          5         14         31         35       74.3       73.1      29.14       4.41       73.1       73.6       72.6       43.8       0.00       0.00      0.000
5:00pm            186          4         10         30         34       74.7       72.8      29.14       4.41       72.8       73.9       72.3       42.8       0.00       0.00      0.000
5:30pm            238          0         12         30         35       74.9       70.7      29.13       4.41       70.7       74.1       70.2       41.7       0.00       0.00      0.000
6:00pm            273          0          7         29         31       75.0       71.6      29.13       4.41       71.6       74.1       70.9       39.4       0.00       0.00      0.000
6:30pm            217          4         12         28         39       74.1       65.6      29.14       4.41       65.6       73.2       65.4       40.0       0.00       0.00      0.000
7:00pm            198          2          8         36         60       72.8       62.6      29.15       4.41       62.6       72.4       64.4       48.5       0.00       0.00      0.000
7:30pm            227          1          9         35         74       73.8       61.5      29.16       4.41       61.5       73.3       64.9       53.1       0.00       0.00      0.000
8:00pm            252          0          2         35         68       74.2       59.4      29.16       4.41       59.4       73.7       62.1       48.8       0.00       0.00      0.000
8:30pm            207          1          1         34         75       74.4       58.4      29.16       4.41       58.4       73.9       62.0       50.5       0.00       0.00      0.000
9:00pm            207          1          2         34         80       74.5       56.9      29.17       4.41       56.9       74.0       61.1       50.8       0.00       0.00      0.000
9:30pm            231          0          4         35         84       74.5       55.1      29.18       4.41       55.1       74.0       59.9       50.4       0.00       0.00      0.000
10:00pm           218          0          2         35         87       74.5       55.3      29.18       4.41       55.3       74.0       60.5       51.5       0.00       0.00      0.000
10:30pm           119          1          2         36         85       74.4       54.2      29.16       4.41       54.2       74.0       59.1       49.8       0.00       0.00      0.000
11:00pm           217          0          6         36         89       74.3       54.3      29.18       4.41       54.3       73.9       59.8       51.1       0.00       0.00      0.000
11:30pm           112          0          2         36         85       74.1       53.2      29.17       4.41       53.2       73.7       58.1       48.8       0.00       0.00      0.000